sensor_id;sensor_type;location;lat;lon;timestamp;P1;durP1;ratioP1;P2;durP2;ratioP2
21941;SDS011;11135;54.192;15.670;2024-01-30T00:02:12;12.48;;;5.32;;
21941;SDS011;11135;54.192;15.670;2024-01-30T00:05:38;15.20;;;7.70;;
21941;SDS011;11135;54.192;15.670;2024-01-30T00:09:04;11.88;;;5.80;;
21941;SDS011;11135;54.192;15.670;2024-01-30T00:12:31;11.32;;;5.72;;
21941;SDS011;11135;54.192;15.670;2024-01-30T00:15:59;12.55;;;6.03;;
21941;SDS011;11135;54.192;15.670;2024-01-30T00:19:26;13.07;;;5.63;;
21941;SDS011;11135;54.192;15.670;2024-01-30T00:22:52;11.88;;;6.88;;
21941;SDS011;11135;54.192;15.670;2024-01-30T00:26:18;17.65;;;7.57;;
21941;SDS011;11135;54.192;15.670;2024-01-30T00:29:43;16.55;;;6.78;;
21941;SDS011;11135;54.192;15.670;2024-01-30T00:33:11;15.75;;;7.65;;
21941;SDS011;11135;54.192;15.670;2024-01-30T00:36:38;15.70;;;7.93;;
21941;SDS011;11135;54.192;15.670;2024-01-30T00:40:04;13.15;;;6.80;;
21941;SDS011;11135;54.192;15.670;2024-01-30T00:43:32;14.77;;;6.90;;
21941;SDS011;11135;54.192;15.670;2024-01-30T00:46:58;15.57;;;8.18;;
21941;SDS011;11135;54.192;15.670;2024-01-30T00:50:26;14.82;;;6.90;;
21941;SDS011;11135;54.192;15.670;2024-01-30T00:53:52;12.55;;;6.93;;
21941;SDS011;11135;54.192;15.670;2024-01-30T00:57:18;13.85;;;7.05;;
21941;SDS011;11135;54.192;15.670;2024-01-30T01:00:43;15.48;;;7.45;;
21941;SDS011;11135;54.192;15.670;2024-01-30T01:04:09;14.02;;;6.85;;
21941;SDS011;11135;54.192;15.670;2024-01-30T01:07:37;14.10;;;7.05;;
21941;SDS011;11135;54.192;15.670;2024-01-30T01:11:05;13.30;;;6.93;;
21941;SDS011;11135;54.192;15.670;2024-01-30T01:14:30;13.65;;;7.18;;
21941;SDS011;11135;54.192;15.670;2024-01-30T01:17:56;12.70;;;5.38;;
21941;SDS011;11135;54.192;15.670;2024-01-30T01:21:22;12.90;;;7.10;;
21941;SDS011;11135;54.192;15.670;2024-01-30T01:24:50;12.15;;;6.28;;
21941;SDS011;11135;54.192;15.670;2024-01-30T01:28:16;14.45;;;7.07;;
21941;SDS011;11135;54.192;15.670;2024-01-30T01:31:42;15.05;;;6.93;;
21941;SDS011;11135;54.192;15.670;2024-01-30T01:35:09;12.93;;;6.80;;
21941;SDS011;11135;54.192;15.670;2024-01-30T01:38:35;11.80;;;6.13;;
21941;SDS011;11135;54.192;15.670;2024-01-30T01:42:03;13.57;;;7.20;;
21941;SDS011;11135;54.192;15.670;2024-01-30T01:45:29;13.18;;;7.00;;
21941;SDS011;11135;54.192;15.670;2024-01-30T01:48:54;15.00;;;7.88;;
21941;SDS011;11135;54.192;15.670;2024-01-30T01:52:22;11.13;;;5.45;;
21941;SDS011;11135;54.192;15.670;2024-01-30T01:55:48;15.60;;;6.68;;
21941;SDS011;11135;54.192;15.670;2024-01-30T01:59:18;13.60;;;6.93;;
21941;SDS011;11135;54.192;15.670;2024-01-30T02:02:45;12.13;;;7.28;;
21941;SDS011;11135;54.192;15.670;2024-01-30T02:06:11;13.60;;;6.95;;
21941;SDS011;11135;54.192;15.670;2024-01-30T02:09:37;13.05;;;7.50;;
21941;SDS011;11135;54.192;15.670;2024-01-30T02:13:03;11.00;;;6.78;;
21941;SDS011;11135;54.192;15.670;2024-01-30T02:16:31;13.88;;;7.10;;
21941;SDS011;11135;54.192;15.670;2024-01-30T02:19:57;9.85;;;6.50;;
21941;SDS011;11135;54.192;15.670;2024-01-30T02:23:25;13.73;;;6.15;;
21941;SDS011;11135;54.192;15.670;2024-01-30T02:26:51;13.18;;;6.35;;
21941;SDS011;11135;54.192;15.670;2024-01-30T02:30:17;14.90;;;6.75;;
21941;SDS011;11135;54.192;15.670;2024-01-30T02:33:42;14.48;;;7.40;;
21941;SDS011;11135;54.192;15.670;2024-01-30T02:37:08;11.95;;;6.07;;
21941;SDS011;11135;54.192;15.670;2024-01-30T02:40:37;11.93;;;6.60;;
21941;SDS011;11135;54.192;15.670;2024-01-30T02:44:02;13.02;;;7.32;;
21941;SDS011;11135;54.192;15.670;2024-01-30T02:47:28;12.02;;;6.22;;
21941;SDS011;11135;54.192;15.670;2024-01-30T02:50:54;13.38;;;7.43;;
21941;SDS011;11135;54.192;15.670;2024-01-30T02:54:20;16.50;;;7.43;;
21941;SDS011;11135;54.192;15.670;2024-01-30T02:57:48;13.30;;;6.95;;
21941;SDS011;11135;54.192;15.670;2024-01-30T03:01:15;12.82;;;7.28;;
21941;SDS011;11135;54.192;15.670;2024-01-30T03:04:41;13.15;;;6.68;;
21941;SDS011;11135;54.192;15.670;2024-01-30T03:08:07;14.45;;;6.53;;
21941;SDS011;11135;54.192;15.670;2024-01-30T03:11:33;10.27;;;6.53;;
21941;SDS011;11135;54.192;15.670;2024-01-30T03:15:01;17.67;;;7.15;;
21941;SDS011;11135;54.192;15.670;2024-01-30T03:18:27;13.90;;;6.68;;
21941;SDS011;11135;54.192;15.670;2024-01-30T03:21:53;12.90;;;6.07;;
21941;SDS011;11135;54.192;15.670;2024-01-30T03:25:18;10.82;;;6.82;;
21941;SDS011;11135;54.192;15.670;2024-01-30T03:28:44;13.25;;;6.22;;
21941;SDS011;11135;54.192;15.670;2024-01-30T03:32:13;11.45;;;7.03;;
21941;SDS011;11135;54.192;15.670;2024-01-30T03:35:38;12.55;;;6.80;;
21941;SDS011;11135;54.192;15.670;2024-01-30T03:39:04;11.50;;;6.60;;
21941;SDS011;11135;54.192;15.670;2024-01-30T03:42:30;14.05;;;5.53;;
21941;SDS011;11135;54.192;15.670;2024-01-30T03:45:55;11.15;;;5.93;;
21941;SDS011;11135;54.192;15.670;2024-01-30T03:49:24;13.68;;;6.88;;
21941;SDS011;11135;54.192;15.670;2024-01-30T03:52:49;14.15;;;7.35;;
21941;SDS011;11135;54.192;15.670;2024-01-30T03:56:15;11.68;;;6.25;;
21941;SDS011;11135;54.192;15.670;2024-01-30T03:59:41;11.98;;;6.03;;
21941;SDS011;11135;54.192;15.670;2024-01-30T04:03:07;18.42;;;7.72;;
21941;SDS011;11135;54.192;15.670;2024-01-30T04:06:35;13.57;;;6.47;;
21941;SDS011;11135;54.192;15.670;2024-01-30T04:10:01;10.23;;;5.60;;
21941;SDS011;11135;54.192;15.670;2024-01-30T04:13:28;12.10;;;6.72;;
21941;SDS011;11135;54.192;15.670;2024-01-30T04:16:54;12.70;;;6.60;;
21941;SDS011;11135;54.192;15.670;2024-01-30T04:20:19;11.75;;;6.72;;
21941;SDS011;11135;54.192;15.670;2024-01-30T04:23:47;12.70;;;6.40;;
21941;SDS011;11135;54.192;15.670;2024-01-30T04:27:13;13.52;;;6.55;;
21941;SDS011;11135;54.192;15.670;2024-01-30T04:30:39;10.25;;;5.72;;
21941;SDS011;11135;54.192;15.670;2024-01-30T04:34:05;11.32;;;5.60;;
21941;SDS011;11135;54.192;15.670;2024-01-30T04:37:31;11.60;;;5.95;;
21941;SDS011;11135;54.192;15.670;2024-01-30T04:40:59;13.55;;;6.47;;
21941;SDS011;11135;54.192;15.670;2024-01-30T04:44:25;14.38;;;7.50;;
21941;SDS011;11135;54.192;15.670;2024-01-30T04:47:51;13.00;;;7.13;;
21941;SDS011;11135;54.192;15.670;2024-01-30T04:51:17;13.80;;;7.13;;
21941;SDS011;11135;54.192;15.670;2024-01-30T04:54:42;16.00;;;6.75;;
21941;SDS011;11135;54.192;15.670;2024-01-30T04:58:11;13.32;;;6.68;;
21941;SDS011;11135;54.192;15.670;2024-01-30T05:01:36;14.68;;;7.95;;
21941;SDS011;11135;54.192;15.670;2024-01-30T05:05:02;13.43;;;6.53;;
21941;SDS011;11135;54.192;15.670;2024-01-30T05:08:28;10.25;;;6.20;;
21941;SDS011;11135;54.192;15.670;2024-01-30T05:11:55;12.43;;;6.60;;
21941;SDS011;11135;54.192;15.670;2024-01-30T05:15:23;10.27;;;6.38;;
21941;SDS011;11135;54.192;15.670;2024-01-30T05:18:49;12.35;;;7.40;;
21941;SDS011;11135;54.192;15.670;2024-01-30T05:22:14;11.43;;;5.57;;
21941;SDS011;11135;54.192;15.670;2024-01-30T05:25:41;14.27;;;7.53;;
21941;SDS011;11135;54.192;15.670;2024-01-30T05:29:07;12.25;;;6.63;;
21941;SDS011;11135;54.192;15.670;2024-01-30T05:32:36;11.95;;;6.03;;
21941;SDS011;11135;54.192;15.670;2024-01-30T05:36:02;15.02;;;6.57;;
21941;SDS011;11135;54.192;15.670;2024-01-30T05:39:28;9.75;;;5.07;;
21941;SDS011;11135;54.192;15.670;2024-01-30T05:42:55;13.10;;;6.43;;
21941;SDS011;11135;54.192;15.670;2024-01-30T05:46:23;11.70;;;6.47;;
21941;SDS011;11135;54.192;15.670;2024-01-30T05:49:52;12.38;;;6.22;;
21941;SDS011;11135;54.192;15.670;2024-01-30T05:53:17;11.98;;;6.55;;
21941;SDS011;11135;54.192;15.670;2024-01-30T05:56:43;12.77;;;6.95;;
21941;SDS011;11135;54.192;15.670;2024-01-30T06:00:09;16.80;;;7.32;;
21941;SDS011;11135;54.192;15.670;2024-01-30T06:03:35;11.02;;;6.55;;
21941;SDS011;11135;54.192;15.670;2024-01-30T06:07:03;14.38;;;7.60;;
21941;SDS011;11135;54.192;15.670;2024-01-30T06:10:30;12.00;;;6.63;;
21941;SDS011;11135;54.192;15.670;2024-01-30T06:13:56;14.13;;;6.88;;
21941;SDS011;11135;54.192;15.670;2024-01-30T06:17:22;14.95;;;6.82;;
21941;SDS011;11135;54.192;15.670;2024-01-30T06:20:48;11.73;;;5.75;;
21941;SDS011;11135;54.192;15.670;2024-01-30T06:24:16;11.32;;;6.18;;
21941;SDS011;11135;54.192;15.670;2024-01-30T06:27:42;12.10;;;6.72;;
21941;SDS011;11135;54.192;15.670;2024-01-30T06:31:08;13.30;;;6.50;;
21941;SDS011;11135;54.192;15.670;2024-01-30T06:34:34;10.57;;;5.03;;
21941;SDS011;11135;54.192;15.670;2024-01-30T06:38:01;8.65;;;4.57;;
21941;SDS011;11135;54.192;15.670;2024-01-30T06:41:29;13.02;;;6.40;;
21941;SDS011;11135;54.192;15.670;2024-01-30T06:44:56;13.20;;;6.47;;
21941;SDS011;11135;54.192;15.670;2024-01-30T06:48:21;13.82;;;6.45;;
21941;SDS011;11135;54.192;15.670;2024-01-30T06:51:47;11.55;;;5.82;;
21941;SDS011;11135;54.192;15.670;2024-01-30T06:55:13;10.98;;;5.50;;
21941;SDS011;11135;54.192;15.670;2024-01-30T06:58:42;8.15;;;5.60;;
21941;SDS011;11135;54.192;15.670;2024-01-30T07:02:08;14.00;;;7.30;;
21941;SDS011;11135;54.192;15.670;2024-01-30T07:05:33;13.50;;;6.22;;
21941;SDS011;11135;54.192;15.670;2024-01-30T07:08:59;11.63;;;6.97;;
21941;SDS011;11135;54.192;15.670;2024-01-30T07:12:26;9.70;;;6.38;;
21941;SDS011;11135;54.192;15.670;2024-01-30T07:15:54;12.35;;;6.80;;
21941;SDS011;11135;54.192;15.670;2024-01-30T07:19:20;11.93;;;5.43;;
21941;SDS011;11135;54.192;15.670;2024-01-30T07:22:46;11.27;;;6.72;;
21941;SDS011;11135;54.192;15.670;2024-01-30T07:26:12;10.93;;;6.65;;
21941;SDS011;11135;54.192;15.670;2024-01-30T07:29:38;8.82;;;4.70;;
21941;SDS011;11135;54.192;15.670;2024-01-30T07:33:07;13.20;;;7.13;;
21941;SDS011;11135;54.192;15.670;2024-01-30T07:36:33;11.07;;;6.20;;
21941;SDS011;11135;54.192;15.670;2024-01-30T07:40:01;10.18;;;6.18;;
21941;SDS011;11135;54.192;15.670;2024-01-30T07:43:26;11.77;;;7.22;;
21941;SDS011;11135;54.192;15.670;2024-01-30T07:46:52;13.93;;;7.78;;
21941;SDS011;11135;54.192;15.670;2024-01-30T07:50:21;12.68;;;5.43;;
21941;SDS011;11135;54.192;15.670;2024-01-30T07:53:47;11.18;;;6.47;;
21941;SDS011;11135;54.192;15.670;2024-01-30T07:57:12;11.43;;;6.35;;
21941;SDS011;11135;54.192;15.670;2024-01-30T08:00:38;10.88;;;6.45;;
21941;SDS011;11135;54.192;15.670;2024-01-30T08:04:04;13.60;;;6.47;;
21941;SDS011;11135;54.192;15.670;2024-01-30T08:07:33;13.60;;;6.63;;
21941;SDS011;11135;54.192;15.670;2024-01-30T08:10:58;12.65;;;7.05;;
21941;SDS011;11135;54.192;15.670;2024-01-30T08:14:24;10.07;;;6.55;;
21941;SDS011;11135;54.192;15.670;2024-01-30T08:17:50;13.35;;;6.82;;
21941;SDS011;11135;54.192;15.670;2024-01-30T08:21:20;12.05;;;5.60;;
21941;SDS011;11135;54.192;15.670;2024-01-30T08:24:49;12.23;;;6.47;;
21941;SDS011;11135;54.192;15.670;2024-01-30T08:28:14;13.00;;;6.85;;
21941;SDS011;11135;54.192;15.670;2024-01-30T08:31:43;10.15;;;5.93;;
21941;SDS011;11135;54.192;15.670;2024-01-30T08:35:09;11.13;;;6.45;;
21941;SDS011;11135;54.192;15.670;2024-01-30T08:38:36;11.38;;;6.57;;
21941;SDS011;11135;54.192;15.670;2024-01-30T08:42:05;15.25;;;7.28;;
21941;SDS011;11135;54.192;15.670;2024-01-30T08:45:31;10.95;;;5.43;;
21941;SDS011;11135;54.192;15.670;2024-01-30T08:48:56;11.40;;;5.70;;
21941;SDS011;11135;54.192;15.670;2024-01-30T08:52:22;13.00;;;7.07;;
21941;SDS011;11135;54.192;15.670;2024-01-30T08:55:48;11.43;;;5.72;;
21941;SDS011;11135;54.192;15.670;2024-01-30T08:59:17;12.82;;;6.57;;
21941;SDS011;11135;54.192;15.670;2024-01-30T09:02:42;11.95;;;6.45;;
21941;SDS011;11135;54.192;15.670;2024-01-30T09:06:09;9.82;;;6.13;;
21941;SDS011;11135;54.192;15.670;2024-01-30T09:09:35;11.23;;;5.72;;
21941;SDS011;11135;54.192;15.670;2024-01-30T09:13:02;12.10;;;6.72;;
21941;SDS011;11135;54.192;15.670;2024-01-30T09:16:30;12.80;;;7.68;;
21941;SDS011;11135;54.192;15.670;2024-01-30T09:19:56;12.77;;;6.38;;
21941;SDS011;11135;54.192;15.670;2024-01-30T09:23:21;8.52;;;5.95;;
21941;SDS011;11135;54.192;15.670;2024-01-30T09:26:47;14.43;;;6.50;;
21941;SDS011;11135;54.192;15.670;2024-01-30T09:30:13;13.90;;;7.30;;
21941;SDS011;11135;54.192;15.670;2024-01-30T09:33:42;12.00;;;6.63;;
21941;SDS011;11135;54.192;15.670;2024-01-30T09:37:10;13.55;;;6.65;;
21941;SDS011;11135;54.192;15.670;2024-01-30T09:40:38;12.55;;;7.13;;
21941;SDS011;11135;54.192;15.670;2024-01-30T09:44:04;13.05;;;6.35;;
21941;SDS011;11135;54.192;15.670;2024-01-30T09:47:31;11.25;;;6.85;;
21941;SDS011;11135;54.192;15.670;2024-01-30T09:51:01;19.65;;;7.53;;
21941;SDS011;11135;54.192;15.670;2024-01-30T09:54:28;10.93;;;6.75;;
21941;SDS011;11135;54.192;15.670;2024-01-30T09:57:58;11.07;;;7.05;;
21941;SDS011;11135;54.192;15.670;2024-01-30T10:01:25;14.07;;;7.10;;
21941;SDS011;11135;54.192;15.670;2024-01-30T10:04:51;12.23;;;7.47;;
21941;SDS011;11135;54.192;15.670;2024-01-30T10:08:20;9.55;;;6.72;;
21941;SDS011;11135;54.192;15.670;2024-01-30T10:11:45;9.15;;;5.95;;
21941;SDS011;11135;54.192;15.670;2024-01-30T10:15:11;14.20;;;7.30;;
21941;SDS011;11135;54.192;15.670;2024-01-30T10:18:38;14.18;;;7.78;;
21941;SDS011;11135;54.192;15.670;2024-01-30T10:22:06;11.20;;;6.95;;
21941;SDS011;11135;54.192;15.670;2024-01-30T10:25:35;13.32;;;7.15;;
21941;SDS011;11135;54.192;15.670;2024-01-30T10:29:01;10.38;;;6.75;;
21941;SDS011;11135;54.192;15.670;2024-01-30T10:32:26;12.45;;;7.72;;
21941;SDS011;11135;54.192;15.670;2024-01-30T10:35:52;15.90;;;6.78;;
21941;SDS011;11135;54.192;15.670;2024-01-30T10:39:19;15.05;;;7.57;;
21941;SDS011;11135;54.192;15.670;2024-01-30T10:42:48;11.38;;;6.75;;
21941;SDS011;11135;54.192;15.670;2024-01-30T10:46:17;14.82;;;8.32;;
21941;SDS011;11135;54.192;15.670;2024-01-30T10:49:44;12.30;;;7.93;;
21941;SDS011;11135;54.192;15.670;2024-01-30T10:53:11;14.30;;;7.82;;
21941;SDS011;11135;54.192;15.670;2024-01-30T10:56:40;13.15;;;7.63;;
21941;SDS011;11135;54.192;15.670;2024-01-30T11:00:09;12.32;;;8.45;;
21941;SDS011;11135;54.192;15.670;2024-01-30T11:03:36;14.52;;;8.90;;
21941;SDS011;11135;54.192;15.670;2024-01-30T11:07:02;12.60;;;7.72;;
21941;SDS011;11135;54.192;15.670;2024-01-30T11:10:29;16.38;;;8.30;;
21941;SDS011;11135;54.192;15.670;2024-01-30T11:13:55;13.23;;;8.45;;
21941;SDS011;11135;54.192;15.670;2024-01-30T11:17:24;15.60;;;8.38;;
21941;SDS011;11135;54.192;15.670;2024-01-30T11:20:53;12.13;;;7.90;;
21941;SDS011;11135;54.192;15.670;2024-01-30T11:24:21;11.93;;;7.85;;
21941;SDS011;11135;54.192;15.670;2024-01-30T11:27:47;15.45;;;8.35;;
21941;SDS011;11135;54.192;15.670;2024-01-30T11:31:14;18.98;;;8.15;;
21941;SDS011;11135;54.192;15.670;2024-01-30T11:34:50;12.88;;;7.78;;
21941;SDS011;11135;54.192;15.670;2024-01-30T11:38:16;15.00;;;8.50;;
21941;SDS011;11135;54.192;15.670;2024-01-30T11:41:42;13.05;;;6.90;;
21941;SDS011;11135;54.192;15.670;2024-01-30T11:45:08;15.05;;;8.93;;
21941;SDS011;11135;54.192;15.670;2024-01-30T11:48:34;16.35;;;8.45;;
21941;SDS011;11135;54.192;15.670;2024-01-30T11:52:03;15.43;;;8.75;;
21941;SDS011;11135;54.192;15.670;2024-01-30T11:55:29;14.88;;;8.88;;
21941;SDS011;11135;54.192;15.670;2024-01-30T11:58:57;12.10;;;7.70;;
21941;SDS011;11135;54.192;15.670;2024-01-30T12:02:23;14.68;;;8.35;;
21941;SDS011;11135;54.192;15.670;2024-01-30T12:05:54;12.40;;;7.43;;
21941;SDS011;11135;54.192;15.670;2024-01-30T12:09:23;13.50;;;8.30;;
21941;SDS011;11135;54.192;15.670;2024-01-30T12:12:50;15.18;;;8.95;;
21941;SDS011;11135;54.192;15.670;2024-01-30T12:16:16;16.00;;;9.57;;
21941;SDS011;11135;54.192;15.670;2024-01-30T12:19:41;19.17;;;8.65;;
21941;SDS011;11135;54.192;15.670;2024-01-30T12:23:08;15.90;;;9.77;;
21941;SDS011;11135;54.192;15.670;2024-01-30T12:26:36;14.50;;;8.93;;
21941;SDS011;11135;54.192;15.670;2024-01-30T12:30:04;13.13;;;8.95;;
21941;SDS011;11135;54.192;15.670;2024-01-30T12:33:31;16.20;;;8.90;;
21941;SDS011;11135;54.192;15.670;2024-01-30T12:36:56;13.90;;;9.55;;
21941;SDS011;11135;54.192;15.670;2024-01-30T12:40:22;17.35;;;10.50;;
21941;SDS011;11135;54.192;15.670;2024-01-30T12:43:51;13.88;;;9.52;;
21941;SDS011;11135;54.192;15.670;2024-01-30T12:47:17;17.25;;;10.18;;
21941;SDS011;11135;54.192;15.670;2024-01-30T12:50:43;12.95;;;8.68;;
21941;SDS011;11135;54.192;15.670;2024-01-30T12:54:09;15.00;;;8.32;;
21941;SDS011;11135;54.192;15.670;2024-01-30T12:57:34;13.07;;;8.50;;
21941;SDS011;11135;54.192;15.670;2024-01-30T13:01:04;14.75;;;7.70;;
21941;SDS011;11135;54.192;15.670;2024-01-30T13:04:30;11.73;;;7.10;;
21941;SDS011;11135;54.192;15.670;2024-01-30T13:07:56;13.63;;;8.50;;
21941;SDS011;11135;54.192;15.670;2024-01-30T13:11:22;12.95;;;7.72;;
21941;SDS011;11135;54.192;15.670;2024-01-30T13:14:48;11.70;;;7.55;;
21941;SDS011;11135;54.192;15.670;2024-01-30T13:18:16;14.77;;;9.15;;
21941;SDS011;11135;54.192;15.670;2024-01-30T13:21:43;19.15;;;9.40;;
21941;SDS011;11135;54.192;15.670;2024-01-30T13:25:10;15.10;;;9.45;;
21941;SDS011;11135;54.192;15.670;2024-01-30T13:28:36;15.38;;;8.55;;
21941;SDS011;11135;54.192;15.670;2024-01-30T13:32:01;13.10;;;7.78;;
21941;SDS011;11135;54.192;15.670;2024-01-30T13:35:30;14.05;;;7.65;;
21941;SDS011;11135;54.192;15.670;2024-01-30T13:38:56;8.45;;;5.35;;
21941;SDS011;11135;54.192;15.670;2024-01-30T13:42:21;12.90;;;7.75;;
21941;SDS011;11135;54.192;15.670;2024-01-30T13:45:47;12.40;;;7.28;;
21941;SDS011;11135;54.192;15.670;2024-01-30T13:49:13;15.27;;;8.85;;
21941;SDS011;11135;54.192;15.670;2024-01-30T13:52:42;15.02;;;8.13;;
21941;SDS011;11135;54.192;15.670;2024-01-30T13:56:08;13.95;;;7.95;;
21941;SDS011;11135;54.192;15.670;2024-01-30T13:59:34;12.95;;;7.90;;
21941;SDS011;11135;54.192;15.670;2024-01-30T14:03:00;16.20;;;9.52;;
21941;SDS011;11135;54.192;15.670;2024-01-30T14:06:26;14.45;;;9.23;;
21941;SDS011;11135;54.192;15.670;2024-01-30T14:09:54;16.95;;;10.50;;
21941;SDS011;11135;54.192;15.670;2024-01-30T14:13:20;17.88;;;9.30;;
21941;SDS011;11135;54.192;15.670;2024-01-30T14:16:47;19.23;;;10.00;;
21941;SDS011;11135;54.192;15.670;2024-01-30T14:20:13;15.20;;;8.25;;
21941;SDS011;11135;54.192;15.670;2024-01-30T14:23:39;13.27;;;7.75;;
21941;SDS011;11135;54.192;15.670;2024-01-30T14:27:07;14.52;;;8.85;;
21941;SDS011;11135;54.192;15.670;2024-01-30T14:30:33;15.68;;;9.25;;
21941;SDS011;11135;54.192;15.670;2024-01-30T14:33:59;14.40;;;8.23;;
21941;SDS011;11135;54.192;15.670;2024-01-30T14:37:25;15.27;;;8.95;;
21941;SDS011;11135;54.192;15.670;2024-01-30T14:40:52;14.25;;;8.63;;
21941;SDS011;11135;54.192;15.670;2024-01-30T14:44:21;15.63;;;8.55;;
21941;SDS011;11135;54.192;15.670;2024-01-30T14:47:46;14.25;;;8.50;;
21941;SDS011;11135;54.192;15.670;2024-01-30T14:51:13;11.65;;;6.97;;
21941;SDS011;11135;54.192;15.670;2024-01-30T14:54:38;12.57;;;8.50;;
21941;SDS011;11135;54.192;15.670;2024-01-30T14:58:06;19.20;;;7.38;;
21941;SDS011;11135;54.192;15.670;2024-01-30T15:01:34;12.32;;;7.40;;
21941;SDS011;11135;54.192;15.670;2024-01-30T15:05:00;14.35;;;8.35;;
21941;SDS011;11135;54.192;15.670;2024-01-30T15:08:26;10.57;;;6.85;;
21941;SDS011;11135;54.192;15.670;2024-01-30T15:11:52;11.73;;;7.00;;
21941;SDS011;11135;54.192;15.670;2024-01-30T15:15:18;15.40;;;7.93;;
21941;SDS011;11135;54.192;15.670;2024-01-30T15:18:46;17.45;;;9.50;;
21941;SDS011;11135;54.192;15.670;2024-01-30T15:22:12;15.23;;;7.95;;
21941;SDS011;11135;54.192;15.670;2024-01-30T15:25:38;17.80;;;9.52;;
21941;SDS011;11135;54.192;15.670;2024-01-30T15:29:04;14.10;;;9.40;;
21941;SDS011;11135;54.192;15.670;2024-01-30T15:32:30;14.27;;;7.35;;
21941;SDS011;11135;54.192;15.670;2024-01-30T15:35:59;12.35;;;8.43;;
21941;SDS011;11135;54.192;15.670;2024-01-30T15:39:25;13.63;;;7.47;;
21941;SDS011;11135;54.192;15.670;2024-01-30T15:42:51;14.48;;;9.10;;
21941;SDS011;11135;54.192;15.670;2024-01-30T15:46:17;13.77;;;8.30;;
21941;SDS011;11135;54.192;15.670;2024-01-30T15:49:43;16.38;;;8.93;;
21941;SDS011;11135;54.192;15.670;2024-01-30T15:53:11;13.77;;;8.55;;
21941;SDS011;11135;54.192;15.670;2024-01-30T15:56:38;14.35;;;9.23;;
21941;SDS011;11135;54.192;15.670;2024-01-30T16:00:04;16.98;;;9.60;;
21941;SDS011;11135;54.192;15.670;2024-01-30T16:03:30;13.38;;;8.90;;
21941;SDS011;11135;54.192;15.670;2024-01-30T16:06:55;14.45;;;9.13;;
21941;SDS011;11135;54.192;15.670;2024-01-30T16:10:24;12.20;;;8.75;;
21941;SDS011;11135;54.192;15.670;2024-01-30T16:13:50;16.08;;;7.75;;
21941;SDS011;11135;54.192;15.670;2024-01-30T16:17:16;12.63;;;7.22;;
21941;SDS011;11135;54.192;15.670;2024-01-30T16:20:42;12.93;;;8.00;;
21941;SDS011;11135;54.192;15.670;2024-01-30T16:24:11;12.88;;;8.38;;
21941;SDS011;11135;54.192;15.670;2024-01-30T16:27:39;13.27;;;9.52;;
21941;SDS011;11135;54.192;15.670;2024-01-30T16:31:05;10.98;;;7.07;;
21941;SDS011;11135;54.192;15.670;2024-01-30T16:34:31;16.92;;;7.72;;
21941;SDS011;11135;54.192;15.670;2024-01-30T16:37:57;14.20;;;9.25;;
21941;SDS011;11135;54.192;15.670;2024-01-30T16:41:22;10.80;;;7.50;;
21941;SDS011;11135;54.192;15.670;2024-01-30T16:44:51;13.65;;;7.22;;
21941;SDS011;11135;54.192;15.670;2024-01-30T16:48:17;12.10;;;7.55;;
21941;SDS011;11135;54.192;15.670;2024-01-30T16:51:45;12.93;;;7.32;;
21941;SDS011;11135;54.192;15.670;2024-01-30T16:55:10;12.27;;;6.97;;
21941;SDS011;11135;54.192;15.670;2024-01-30T16:58:36;14.30;;;7.60;;
21941;SDS011;11135;54.192;15.670;2024-01-30T17:02:05;15.82;;;7.65;;
21941;SDS011;11135;54.192;15.670;2024-01-30T17:05:31;11.52;;;7.13;;
21941;SDS011;11135;54.192;15.670;2024-01-30T17:08:56;11.93;;;6.97;;
21941;SDS011;11135;54.192;15.670;2024-01-30T17:12:22;12.75;;;8.38;;
21941;SDS011;11135;54.192;15.670;2024-01-30T17:15:48;13.07;;;6.57;;
21941;SDS011;11135;54.192;15.670;2024-01-30T17:19:16;11.90;;;6.40;;
21941;SDS011;11135;54.192;15.670;2024-01-30T17:22:42;12.00;;;6.55;;
21941;SDS011;11135;54.192;15.670;2024-01-30T17:26:09;12.60;;;6.93;;
21941;SDS011;11135;54.192;15.670;2024-01-30T17:29:35;11.55;;;6.97;;
21941;SDS011;11135;54.192;15.670;2024-01-30T17:33:01;12.48;;;7.68;;
21941;SDS011;11135;54.192;15.670;2024-01-30T17:36:30;11.75;;;6.97;;
21941;SDS011;11135;54.192;15.670;2024-01-30T17:39:56;10.57;;;6.72;;
21941;SDS011;11135;54.192;15.670;2024-01-30T17:43:22;9.32;;;5.60;;
21941;SDS011;11135;54.192;15.670;2024-01-30T17:46:48;13.07;;;6.15;;
21941;SDS011;11135;54.192;15.670;2024-01-30T17:50:14;11.93;;;6.70;;
21941;SDS011;11135;54.192;15.670;2024-01-30T17:53:42;13.90;;;8.23;;
21941;SDS011;11135;54.192;15.670;2024-01-30T17:57:08;13.27;;;8.00;;
21941;SDS011;11135;54.192;15.670;2024-01-30T18:00:34;13.82;;;7.03;;
21941;SDS011;11135;54.192;15.670;2024-01-30T18:03:59;12.93;;;7.72;;
21941;SDS011;11135;54.192;15.670;2024-01-30T18:07:25;14.80;;;8.45;;
21941;SDS011;11135;54.192;15.670;2024-01-30T18:10:53;14.02;;;8.23;;
21941;SDS011;11135;54.192;15.670;2024-01-30T18:14:20;14.20;;;7.75;;
21941;SDS011;11135;54.192;15.670;2024-01-30T18:17:46;16.40;;;7.88;;
21941;SDS011;11135;54.192;15.670;2024-01-30T18:21:12;13.32;;;7.75;;
21941;SDS011;11135;54.192;15.670;2024-01-30T18:24:38;14.50;;;8.55;;
21941;SDS011;11135;54.192;15.670;2024-01-30T18:28:07;12.52;;;6.68;;
21941;SDS011;11135;54.192;15.670;2024-01-30T18:31:33;10.57;;;6.38;;
21941;SDS011;11135;54.192;15.670;2024-01-30T18:35:04;17.83;;;9.13;;
21941;SDS011;11135;54.192;15.670;2024-01-30T18:38:30;11.45;;;8.20;;
21941;SDS011;11135;54.192;15.670;2024-01-30T18:41:56;14.45;;;9.23;;
21941;SDS011;11135;54.192;15.670;2024-01-30T18:45:24;11.25;;;7.15;;
21941;SDS011;11135;54.192;15.670;2024-01-30T18:48:50;13.00;;;7.63;;
21941;SDS011;11135;54.192;15.670;2024-01-30T18:52:16;14.73;;;8.20;;
21941;SDS011;11135;54.192;15.670;2024-01-30T18:55:42;14.95;;;8.52;;
21941;SDS011;11135;54.192;15.670;2024-01-30T18:59:08;14.90;;;8.52;;
21941;SDS011;11135;54.192;15.670;2024-01-30T19:02:42;16.63;;;8.77;;
21941;SDS011;11135;54.192;15.670;2024-01-30T19:06:08;12.63;;;8.02;;
21941;SDS011;11135;54.192;15.670;2024-01-30T19:09:35;14.80;;;8.55;;
21941;SDS011;11135;54.192;15.670;2024-01-30T19:13:01;14.05;;;7.15;;
21941;SDS011;11135;54.192;15.670;2024-01-30T19:16:29;14.75;;;8.48;;
21941;SDS011;11135;54.192;15.670;2024-01-30T19:19:59;15.75;;;7.82;;
21941;SDS011;11135;54.192;15.670;2024-01-30T19:23:24;12.23;;;8.73;;
21941;SDS011;11135;54.192;15.670;2024-01-30T19:26:50;15.32;;;9.35;;
21941;SDS011;11135;54.192;15.670;2024-01-30T19:30:17;14.88;;;8.63;;
21941;SDS011;11135;54.192;15.670;2024-01-30T19:33:43;12.57;;;7.43;;
21941;SDS011;11135;54.192;15.670;2024-01-30T19:37:12;15.18;;;8.43;;
21941;SDS011;11135;54.192;15.670;2024-01-30T19:40:37;14.85;;;7.93;;
21941;SDS011;11135;54.192;15.670;2024-01-30T19:44:03;11.82;;;8.38;;
21941;SDS011;11135;54.192;15.670;2024-01-30T19:47:28;16.88;;;8.95;;
21941;SDS011;11135;54.192;15.670;2024-01-30T19:50:55;14.18;;;8.15;;
21941;SDS011;11135;54.192;15.670;2024-01-30T19:54:23;11.98;;;7.15;;
21941;SDS011;11135;54.192;15.670;2024-01-30T19:57:50;10.65;;;6.88;;
21941;SDS011;11135;54.192;15.670;2024-01-30T20:01:19;13.35;;;7.32;;
21941;SDS011;11135;54.192;15.670;2024-01-30T20:04:45;13.00;;;7.78;;
21941;SDS011;11135;54.192;15.670;2024-01-30T20:08:10;10.68;;;7.55;;